Time;durP1;ratioP1;P1;durP2;ratioP2;P2;SDS_P1;SDS_P2;PMS_P1;PMS_P2;Temp;Humidity;BMP_temperature;BMP_pressure;BME280_temperature;BME280_humidity;BME280_pressure;Samples;Min_cycle;Max_cycle;Signal;HPM_P1;HPM_P2
2022/11/11 00:01:12;;;;;;;0.75;0.38;;;;;;;;;;4082034;29;20058;-32
2022/11/11 00:03:32;;;;;;;0.52;0.30;;;;;;;;;;4082091;29;20416;-32
2022/11/11 00:05:52;;;;;;;1.00;0.30;;;;;;;;;;4082452;29;20496;-33
2022/11/11 00:08:12;;;;;;;0.40;0.20;;;;;;;;;;4082301;29;20051;-32
2022/11/11 00:10:32;;;;;;;0.20;0.20;;;;;;;;;;4082314;29;20055;-34
2022/11/11 00:12:51;;;;;;;1.05;0.20;;;;;;;;;;4082234;29;20503;-35
2022/11/11 00:15:11;;;;;;;;;;;;;;;;;;4082652;29;20051;-35
2022/11/11 00:25:28;;;;;;;0.47;0.30;;;;;;;;;;4070331;29;20059;-32
2022/11/11 00:27:48;;;;;;;;;;;;;;;;;;4082625;29;20056;-34
2022/11/11 00:30:08;;;;;;;0.40;0.10;;;;;;;;;;4081927;29;20442;-33
2022/11/11 00:32:32;;;;;;;0.80;0.22;;;;;;;;;;4081632;29;20084;-32
2022/11/11 00:37:33;;;;;;;0.82;0.20;;;;;;;;;;4081973;29;20052;-33
2022/11/11 00:39:53;;;;;;;0.40;0.20;;;;;;;;;;4081814;29;20067;-34
2022/11/11 00:42:13;;;;;;;;;;;;;;;;;;4082468;29;20059;-36
2022/11/11 00:44:33;;;;;;;1.02;0.30;;;;;;;;;;4082137;29;19930;-32
2022/11/11 00:52:10;;;;;;;0.50;0.20;;;;;;;;;;4082178;29;20064;-33
2022/11/11 00:54:29;;;;;;;0.38;0.15;;;;;;;;;;4081894;29;20059;-32
2022/11/11 00:56:50;;;;;;;1.52;0.30;;;;;;;;;;4080801;29;20063;-32
2022/11/11 00:59:09;;;;;;;1.17;0.38;;;;;;;;;;4064975;29;20064;-34
2022/11/11 01:01:29;;;;;;;;;;;;;;;;;;4082094;29;20052;-33
2022/11/11 01:03:49;;;;;;;0.30;0.10;;;;;;;;;;4081600;29;19922;-33
2022/11/11 01:06:11;;;;;;;1.02;0.28;;;;;;;;;;4081604;29;20498;-35
2022/11/11 01:08:31;;;;;;;1.73;0.30;;;;;;;;;;4082415;29;20055;-34
2022/11/11 01:10:51;;;;;;;0.63;0.20;;;;;;;;;;4081599;29;20052;-33
2022/11/11 01:13:16;;;;;;;0.40;0.20;;;;;;;;;;4081834;29;20451;-34
2022/11/11 01:15:36;;;;;;;0.40;0.30;;;;;;;;;;4082943;29;20493;-33
2022/11/11 01:17:55;;;;;;;1.02;0.15;;;;;;;;;;4084527;29;20110;-32
2022/11/11 01:20:15;;;;;;;;;;;;;;;;;;4068079;29;20080;-33
2022/11/11 01:22:35;;;;;;;0.70;0.20;;;;;;;;;;4084246;29;19985;-33
2022/11/11 01:24:55;;;;;;;0.40;0.20;;;;;;;;;;4084475;29;20083;-33
2022/11/11 01:27:15;;;;;;;;;;;;;;;;;;4084745;29;20385;-33
2022/11/11 01:29:35;;;;;;;0.40;0.20;;;;;;;;;;4084363;29;19923;-34
2022/11/11 01:31:55;;;;;;;0.47;0.22;;;;;;;;;;4083901;29;20059;-35
2022/11/11 01:34:15;;;;;;;0.98;0.20;;;;;;;;;;4084464;29;20519;-33
2022/11/11 01:36:35;;;;;;;0.38;0.20;;;;;;;;;;4084638;29;20059;-34
2022/11/11 01:38:57;;;;;;;0.63;0.22;;;;;;;;;;4069893;29;20055;-32
2022/11/11 01:41:31;;;;;;;0.63;0.17;;;;;;;;;;4084106;29;20181;-38
2022/11/11 01:43:52;;;;;;;0.85;0.30;;;;;;;;;;4084024;29;20542;-33
2022/11/11 01:46:38;;;;;;;0.45;0.20;;;;;;;;;;4084559;29;20087;-32
2022/11/11 01:49:17;;;;;;;0.85;0.30;;;;;;;;;;4083237;29;20055;-34
2022/11/11 01:51:37;;;;;;;;;;;;;;;;;;4070710;29;20111;-32
2022/11/11 01:53:59;;;;;;;0.63;0.20;;;;;;;;;;4084253;29;20020;-34
2022/11/11 01:56:19;;;;;;;0.93;0.10;;;;;;;;;;4069457;29;20510;-33
2022/11/11 01:58:39;;;;;;;1.20;0.28;;;;;;;;;;4069525;29;20064;-33
2022/11/11 02:00:59;;;;;;;0.40;0.20;;;;;;;;;;4083980;29;20048;-35
2022/11/11 02:03:18;;;;;;;;;;;;;;;;;;4053464;29;20517;-34
2022/11/11 02:05:41;;;;;;;0.30;0.20;;;;;;;;;;4082978;29;20253;-34
2022/11/11 02:08:07;;;;;;;0.40;0.10;;;;;;;;;;4069903;29;20453;-32
2022/11/11 02:10:29;;;;;;;0.70;0.20;;;;;;;;;;4058568;29;20477;-36
2022/11/11 02:15:27;;;;;;;0.40;0.10;;;;;;;;;;4073494;29;20492;-34
2022/11/11 02:17:47;;;;;;;;;;;;;;;;;;4069452;29;20060;-32
2022/11/11 02:20:08;;;;;;;0.40;0.10;;;;;;;;;;4069327;29;19923;-32
2022/11/11 02:22:33;;;;;;;0.40;0.20;;;;;;;;;;4069135;29;20528;-32
2022/11/11 02:24:54;;;;;;;0.75;0.10;;;;;;;;;;4068602;29;20060;-34
2022/11/11 02:27:15;;;;;;;0.63;0.30;;;;;;;;;;4082493;29;20126;-32
2022/11/11 02:29:35;;;;;;;0.95;0.28;;;;;;;;;;4083582;29;20103;-35
2022/11/11 02:31:55;;;;;;;0.20;0.17;;;;;;;;;;4083065;29;20063;-34
2022/11/11 02:34:15;;;;;;;0.45;0.20;;;;;;;;;;4083394;29;20063;-38
2022/11/11 02:36:36;;;;;;;0.38;0.20;;;;;;;;;;4082879;29;20059;-32
2022/11/11 02:38:56;;;;;;;1.25;0.30;;;;;;;;;;4069105;29;20522;-33
2022/11/11 02:43:54;;;;;;;0.10;0.10;;;;;;;;;;4083413;29;20064;-34
2022/11/11 02:46:14;;;;;;;;;;;;;;;;;;4084378;29;20059;-34
2022/11/11 02:48:34;;;;;;;1.02;0.40;;;;;;;;;;4083352;29;20216;-33
2022/11/11 02:50:54;;;;;;;;;;;;;;;;;;4083713;29;20052;-33
2022/11/11 02:53:14;;;;;;;;;;;;;;;;;;4083599;29;19923;-32
2022/11/11 02:55:33;;;;;;;0.40;0.22;;;;;;;;;;4083477;29;19922;-33
2022/11/11 02:57:53;;;;;;;0.50;0.20;;;;;;;;;;4083028;29;20059;-35
2022/11/11 03:00:13;;;;;;;0.28;0.20;;;;;;;;;;4083279;29;20107;-34
2022/11/11 03:02:34;;;;;;;0.65;0.30;;;;;;;;;;4082270;29;20056;-35
2022/11/11 03:04:54;;;;;;;0.22;0.20;;;;;;;;;;4082755;29;20089;-34
2022/11/11 03:07:14;;;;;;;0.70;0.20;;;;;;;;;;4082301;29;20059;-32
2022/11/11 03:09:34;;;;;;;0.47;0.20;;;;;;;;;;4083131;29;20055;-34
2022/11/11 03:11:54;;;;;;;;;;;;;;;;;;4069076;29;20056;-32
2022/11/11 03:14:14;;;;;;;;;;;;;;;;;;4083407;29;19923;-32
2022/11/11 03:19:13;;;;;;;1.08;0.20;;;;;;;;;;4070547;29;20059;-33
2022/11/11 03:21:32;;;;;;;0.32;0.20;;;;;;;;;;4082827;29;20051;-32
2022/11/11 03:23:52;;;;;;;;;;;;;;;;;;4081669;29;20060;-32
2022/11/11 03:26:12;;;;;;;0.30;0.17;;;;;;;;;;4082743;29;19923;-34
2022/11/11 03:28:31;;;;;;;0.30;0.20;;;;;;;;;;4082819;29;20060;-33
2022/11/11 03:30:52;;;;;;;0.50;0.20;;;;;;;;;;4065810;29;20048;-36
2022/11/11 03:33:12;;;;;;;0.85;0.20;;;;;;;;;;4082234;29;20056;-32
2022/11/11 03:35:32;;;;;;;0.20;0.20;;;;;;;;;;4082344;29;20063;-33
2022/11/11 03:40:31;;;;;;;0.40;0.20;;;;;;;;;;4082552;29;20547;-32
2022/11/11 03:42:51;;;;;;;;;;;;;;;;;;4083063;29;20063;-33
2022/11/11 03:45:10;;;;;;;0.10;0.10;;;;;;;;;;4082521;29;20275;-34
2022/11/11 03:47:30;;;;;;;0.35;0.20;;;;;;;;;;4082076;29;20103;-32
2022/11/11 03:49:50;;;;;;;0.38;0.20;;;;;;;;;;4082530;29;20067;-33
2022/11/11 03:52:10;;;;;;;0.82;0.20;;;;;;;;;;4071159;29;20056;-33
2022/11/11 03:54:29;;;;;;;0.22;0.10;;;;;;;;;;4082730;29;20064;-33
2022/11/11 03:56:49;;;;;;;;;;;;;;;;;;4082700;29;20083;-36
2022/11/11 03:59:09;;;;;;;0.40;0.17;;;;;;;;;;4082432;29;20307;-32
2022/11/11 04:12:04;;;;;;;0.38;0.20;;;;;;;;;;4081983;29;20085;-34
2022/11/11 04:17:03;;;;;;;0.60;0.20;;;;;;;;;;4081845;29;20134;-32
2022/11/11 04:22:02;;;;;;;0.75;0.25;;;;;;;;;;4082299;29;20047;-34
2022/11/11 04:27:03;;;;;;;0.52;0.10;;;;;;;;;;4082480;29;20059;-33
2022/11/11 04:29:29;;;;;;;0.40;0.22;;;;;;;;;;4082261;29;20059;-31
2022/11/11 04:34:27;;;;;;;0.70;0.20;;;;;;;;;;4081112;29;20468;-32
2022/11/11 04:36:47;;;;;;;;;;;;;;;;;;4076220;29;20460;-33
2022/11/11 04:41:46;;;;;;;0.20;0.10;;;;;;;;;;4073182;29;20546;-32
2022/11/11 04:46:44;;;;;;;0.30;0.20;;;;;;;;;;4081631;29;20570;-34
2022/11/11 04:49:04;;;;;;;1.75;0.20;;;;;;;;;;4069695;29;20056;-32
2022/11/11 04:52:25;;;;;;;;;;;;;;;;;;4069329;29;20056;-33
2022/11/11 04:54:04;;;;;;;;;;;;;;;;;;4082793;29;20149;-34
2022/11/11 04:59:15;;;;;;;1.27;0.20;;;;;;;;;;4082652;29;20063;-32
2022/11/11 05:04:13;;;;;;;0.35;0.28;;;;;;;;;;4080444;29;20076;-32
2022/11/11 05:09:12;;;;;;;2.10;0.57;;;;;;;;;;4084952;29;20075;-33
2022/11/11 05:11:34;;;;;;;0.95;0.20;;;;;;;;;;4084822;29;20055;-33
2022/11/11 05:22:10;;;;;;;0.65;0.20;;;;;;;;;;4084357;29;20111;-33
2022/11/11 05:27:08;;;;;;;0.15;0.10;;;;;;;;;;4084323;29;20055;-32
2022/11/11 05:29:28;;;;;;;0.63;0.25;;;;;;;;;;4084724;29;20067;-40
2022/11/11 05:31:48;;;;;;;;;;;;;;;;;;4070149;29;20060;-32
2022/11/11 05:34:08;;;;;;;;;;;;;;;;;;4085003;29;19978;-33
2022/11/11 05:36:27;;;;;;;0.60;0.20;;;;;;;;;;4084521;29;19927;-33
2022/11/11 05:38:47;;;;;;;0.13;0.10;;;;;;;;;;4084345;29;20055;-33
2022/11/11 05:41:08;;;;;;;0.30;0.20;;;;;;;;;;4084627;29;20060;-33
2022/11/11 05:43:28;;;;;;;0.15;0.15;;;;;;;;;;4067043;29;20059;-34
2022/11/11 05:45:48;;;;;;;0.30;0.10;;;;;;;;;;4084676;29;20051;-33
2022/11/11 05:48:08;;;;;;;0.30;0.10;;;;;;;;;;4084115;29;20487;-33
2022/11/11 05:50:28;;;;;;;0.10;0.10;;;;;;;;;;4080667;29;20103;-33
2022/11/11 05:52:49;;;;;;;0.38;0.13;;;;;;;;;;4078522;29;20052;-32
2022/11/11 05:55:09;;;;;;;0.30;0.10;;;;;;;;;;4079488;29;20047;-36
2022/11/11 05:57:29;;;;;;;0.35;0.20;;;;;;;;;;4074551;29;20059;-32
2022/11/11 05:59:49;;;;;;;;;;;;;;;;;;4082197;29;20157;-34
2022/11/11 06:02:08;;;;;;;0.30;0.10;;;;;;;;;;4066639;29;19957;-31
2022/11/11 06:04:28;;;;;;;;;;;;;;;;;;4082215;29;20464;-32
2022/11/11 06:06:48;;;;;;;0.47;0.30;;;;;;;;;;4080887;29;19926;-35
2022/11/11 06:09:07;;;;;;;0.20;0.15;;;;;;;;;;4080814;29;20059;-32
2022/11/11 06:11:27;;;;;;;0.57;0.10;;;;;;;;;;4075043;29;20059;-39
2022/11/11 06:13:47;;;;;;;0.45;0.15;;;;;;;;;;4077925;29;20059;-32
2022/11/11 06:16:07;;;;;;;0.93;0.40;;;;;;;;;;4074288;29;20048;-32
2022/11/11 06:18:27;;;;;;;0.47;0.10;;;;;;;;;;4080117;29;20059;-33
2022/11/11 06:20:54;;;;;;;0.20;0.13;;;;;;;;;;4079563;29;20114;-35
2022/11/11 06:23:14;;;;;;;0.55;0.30;;;;;;;;;;4077807;29;20063;-36
2022/11/11 06:28:13;;;;;;;1.55;0.15;;;;;;;;;;4077669;29;20071;-35
2022/11/11 06:30:32;;;;;;;;;;;;;;;;;;4080025;29;20051;-36
2022/11/11 06:32:53;;;;;;;1.58;0.40;;;;;;;;;;4079000;29;20047;-31
2022/11/11 06:35:14;;;;;;;0.30;0.10;;;;;;;;;;4078658;29;20119;-32
2022/11/11 06:37:35;;;;;;;0.20;0.10;;;;;;;;;;4077223;29;20047;-35
2022/11/11 06:39:55;;;;;;;0.30;0.20;;;;;;;;;;4078411;29;20067;-35
2022/11/11 06:42:15;;;;;;;0.28;0.10;;;;;;;;;;4080601;29;20051;-32
2022/11/11 06:44:34;;;;;;;0.40;0.30;;;;;;;;;;4079003;29;20055;-35
2022/11/11 06:46:54;;;;;;;0.35;0.17;;;;;;;;;;4073232;29;20059;-39
2022/11/11 06:49:14;;;;;;;0.40;0.15;;;;;;;;;;4079404;29;20091;-33
2022/11/11 06:51:34;;;;;;;;;;;;;;;;;;4076259;29;20446;-33
2022/11/11 06:53:54;;;;;;;0.40;0.20;;;;;;;;;;4078710;29;19946;-36
2022/11/11 06:56:14;;;;;;;0.15;0.15;;;;;;;;;;4076622;29;20511;-32
2022/11/11 06:58:34;;;;;;;;;;;;;;;;;;4070252;29;20048;-32
2022/11/11 07:00:54;;;;;;;0.50;0.20;;;;;;;;;;4077755;29;19926;-32
2022/11/11 07:03:15;;;;;;;0.43;0.10;;;;;;;;;;4077478;29;20067;-33
2022/11/11 07:05:35;;;;;;;0.28;0.20;;;;;;;;;;4075411;29;20055;-38
2022/11/11 07:07:55;;;;;;;3.00;0.93;;;;;;;;;;4074110;29;20059;-35
2022/11/11 07:10:16;;;;;;;0.10;0.10;;;;;;;;;;4061408;29;20055;-34
2022/11/11 07:12:39;;;;;;;0.82;0.20;;;;;;;;;;4074588;29;20055;-38
2022/11/11 07:14:59;;;;;;;0.77;0.20;;;;;;;;;;4066667;29;20066;-33
2022/11/11 07:17:19;;;;;;;0.45;0.20;;;;;;;;;;4061127;29;20060;-37
2022/11/11 07:19:39;;;;;;;;;;;;;;;;;;4066268;29;20059;-33
2022/11/11 07:21:58;;;;;;;0.98;0.32;;;;;;;;;;4058729;29;19931;-37
2022/11/11 07:24:19;;;;;;;0.52;0.25;;;;;;;;;;4055436;29;21025;-37
2022/11/11 07:26:39;;;;;;;0.80;0.30;;;;;;;;;;4050852;29;20063;-38
2022/11/11 07:28:59;;;;;;;1.23;0.45;;;;;;;;;;4043208;29;21056;-40
2022/11/11 07:31:19;;;;;;;2.67;0.30;;;;;;;;;;4058109;29;20055;-39
2022/11/11 07:33:39;;;;;;;2.08;0.20;;;;;;;;;;4057493;29;20087;-40
2022/11/11 07:35:59;;;;;;;0.60;0.20;;;;;;;;;;4061070;29;20060;-36
2022/11/11 07:38:18;;;;;;;;;;;;;;;;;;4060148;29;20060;-38
2022/11/11 07:40:38;;;;;;;0.45;0.10;;;;;;;;;;4061516;29;19977;-38
2022/11/11 07:42:58;;;;;;;0.65;0.13;;;;;;;;;;4048202;29;20060;-38
2022/11/11 07:45:18;;;;;;;0.38;0.10;;;;;;;;;;4049411;29;20064;-33
2022/11/11 07:47:37;;;;;;;0.30;0.20;;;;;;;;;;4066813;29;20106;-37
2022/11/11 07:49:57;;;;;;;;;;;;;;;;;;4057494;29;20126;-34
2022/11/11 07:52:17;;;;;;;1.15;0.47;;;;;;;;;;4063483;29;19930;-41
2022/11/11 07:54:37;;;;;;;1.75;0.70;;;;;;;;;;4057842;29;21120;-39
2022/11/11 07:56:56;;;;;;;;;;;;;;;;;;4039224;29;20063;-38
2022/11/11 07:59:16;;;;;;;;;;;;;;;;;;4044282;29;19926;-41
2022/11/11 08:01:36;;;;;;;0.65;0.20;;;;;;;;;;4039598;29;20869;-39
2022/11/11 08:03:56;;;;;;;2.28;0.52;;;;;;;;;;4041086;29;20060;-37
2022/11/11 08:06:21;;;;;;;0.70;0.30;;;;;;;;;;4036191;29;20695;-38
2022/11/11 08:08:41;;;;;;;1.27;0.30;;;;;;;;;;4037213;29;20172;-37
2022/11/11 08:11:01;;;;;;;0.65;0.28;;;;;;;;;;4041302;29;22352;-36
2022/11/11 08:13:39;;;;;;;1.13;0.35;;;;;;;;;;4041901;29;20525;-36
2022/11/11 08:16:01;;;;;;;1.58;0.30;;;;;;;;;;4037295;29;20603;-38
2022/11/11 08:18:22;;;;;;;0.55;0.25;;;;;;;;;;4044233;29;20063;-38
2022/11/11 08:20:42;;;;;;;1.10;0.68;;;;;;;;;;4042901;29;20063;-39
2022/11/11 08:23:03;;;;;;;0.38;0.20;;;;;;;;;;4039409;29;20608;-38
2022/11/11 08:25:23;;;;;;;0.63;0.20;;;;;;;;;;4038851;29;20060;-40
2022/11/11 08:27:42;;;;;;;0.68;0.32;;;;;;;;;;4042845;29;20885;-42
2022/11/11 08:30:05;;;;;;;0.60;0.15;;;;;;;;;;4040581;29;20059;-36
2022/11/11 08:32:24;;;;;;;1.67;0.40;;;;;;;;;;4039444;29;20055;-39
2022/11/11 08:34:44;;;;;;;;;;;;;;;;;;4038588;29;20705;-40
2022/11/11 08:37:04;;;;;;;0.98;0.30;;;;;;;;;;4038568;29;19926;-39
2022/11/11 08:39:24;;;;;;;;;;;;;;;;;;4040722;29;20052;-40
2022/11/11 08:41:44;;;;;;;;;;;;;;;;;;4041175;29;19930;-38
2022/11/11 08:44:04;;;;;;;1.10;0.30;;;;;;;;;;4045051;29;19931;-40
2022/11/11 08:46:25;;;;;;;5.93;0.80;;;;;;;;;;4041321;29;20178;-43
2022/11/11 08:48:45;;;;;;;0.30;0.22;;;;;;;;;;4041651;29;20460;-44
2022/11/11 08:51:05;;;;;;;2.00;0.40;;;;;;;;;;4036100;29;20142;-45
2022/11/11 08:53:26;;;;;;;1.50;0.45;;;;;;;;;;4034989;29;20213;-45
2022/11/11 08:55:46;;;;;;;0.63;0.30;;;;;;;;;;4037913;29;20492;-45
2022/11/11 08:58:06;;;;;;;2.10;0.47;;;;;;;;;;4031611;29;20138;-46
2022/11/11 09:00:26;;;;;;;1.30;0.30;;;;;;;;;;4026480;29;20060;-44
2022/11/11 09:02:46;;;;;;;1.90;0.30;;;;;;;;;;4036478;29;20098;-44
2022/11/11 09:05:06;;;;;;;;;;;;;;;;;;4027249;29;20462;-44
2022/11/11 09:07:27;;;;;;;0.98;0.25;;;;;;;;;;4035309;29;20955;-45
2022/11/11 09:09:46;;;;;;;1.27;0.30;;;;;;;;;;4035921;29;20134;-44
2022/11/11 09:12:06;;;;;;;2.38;0.40;;;;;;;;;;4039602;29;20181;-44
2022/11/11 09:14:26;;;;;;;;;;;;;;;;;;4043969;29;20059;-44
2022/11/11 09:16:46;;;;;;;0.70;0.30;;;;;;;;;;4032052;29;20933;-45
2022/11/11 09:19:06;;;;;;;0.50;0.30;;;;;;;;;;4039220;29;20059;-44
2022/11/11 09:21:26;;;;;;;2.10;0.50;;;;;;;;;;4017529;29;20133;-44
2022/11/11 09:23:46;;;;;;;1.70;0.40;;;;;;;;;;4036538;29;20051;-45
2022/11/11 09:26:07;;;;;;;1.30;0.45;;;;;;;;;;4042655;29;21365;-44
2022/11/11 09:28:26;;;;;;;;;;;;;;;;;;4040173;29;20119;-45
2022/11/11 09:30:46;;;;;;;0.88;0.32;;;;;;;;;;4032285;29;19931;-45
2022/11/11 09:33:06;;;;;;;;;;;;;;;;;;4037314;29;20072;-44
2022/11/11 09:35:26;;;;;;;1.50;0.50;;;;;;;;;;4031026;29;20021;-45
2022/11/11 09:37:57;;;;;;;1.02;0.30;;;;;;;;;;4035574;29;20572;-45
2022/11/11 09:40:20;;;;;;;0.73;0.30;;;;;;;;;;4034158;29;20572;-45
2022/11/11 09:42:43;;;;;;;0.65;0.40;;;;;;;;;;4020204;29;20668;-44
2022/11/11 09:45:42;;;;;;;1.23;0.40;;;;;;;;;;4009073;29;20235;-45
2022/11/11 09:48:37;;;;;;;1.48;0.30;;;;;;;;;;4036655;29;20055;-44
2022/11/11 09:50:58;;;;;;;1.38;0.40;;;;;;;;;;4020864;29;20552;-45
2022/11/11 09:53:24;;;;;;;2.20;0.45;;;;;;;;;;4037916;29;20389;-45
2022/11/11 09:55:51;;;;;;;0.65;0.30;;;;;;;;;;4038261;29;20059;-45
2022/11/11 09:58:18;;;;;;;0.60;0.30;;;;;;;;;;4040247;29;20068;-45
2022/11/11 10:00:41;;;;;;;2.63;0.50;;;;;;;;;;4008449;29;20751;-45
2022/11/11 10:03:10;;;;;;;1.13;0.40;;;;;;;;;;4019554;29;20131;-45
2022/11/11 10:05:38;;;;;;;1.73;0.60;;;;;;;;;;4024101;29;20483;-46
2022/11/11 10:08:21;;;;;;;1.27;0.50;;;;;;;;;;4023118;29;21030;-45
2022/11/11 10:10:44;;;;;;;0.30;0.30;;;;;;;;;;4031392;29;21197;-45
2022/11/11 10:13:12;;;;;;;3.50;0.47;;;;;;;;;;4015977;29;20060;-44
2022/11/11 10:15:40;;;;;;;1.45;0.60;;;;;;;;;;4017143;29;20067;-45
2022/11/11 10:18:11;;;;;;;1.15;0.57;;;;;;;;;;4026650;29;20293;-45
2022/11/11 10:20:33;;;;;;;2.15;0.40;;;;;;;;;;4014677;29;20095;-45
2022/11/11 10:23:01;;;;;;;1.88;0.70;;;;;;;;;;4026917;29;20151;-43
2022/11/11 10:25:24;;;;;;;0.85;0.40;;;;;;;;;;4023463;29;20060;-45
2022/11/11 10:27:47;;;;;;;5.15;0.30;;;;;;;;;;4039011;29;21991;-45
2022/11/11 10:30:15;;;;;;;0.75;0.35;;;;;;;;;;4044103;29;20060;-45
2022/11/11 10:32:35;;;;;;;11.07;0.80;;;;;;;;;;4031499;29;20143;-45
2022/11/11 10:35:02;;;;;;;1.80;0.60;;;;;;;;;;4022903;29;20068;-45
2022/11/11 10:37:40;;;;;;;1.08;0.55;;;;;;;;;;4031034;29;20055;-45
2022/11/11 10:40:28;;;;;;;5.53;0.50;;;;;;;;;;4037994;29;20590;-44
2022/11/11 10:42:47;;;;;;;0.82;0.40;;;;;;;;;;4035647;29;20127;-45
2022/11/11 10:45:13;;;;;;;1.02;0.40;;;;;;;;;;4037946;29;20064;-45
2022/11/11 10:47:38;;;;;;;1.60;0.45;;;;;;;;;;4042877;29;20564;-45
2022/11/11 10:50:15;;;;;;;1.75;0.30;;;;;;;;;;4041386;29;20950;-44
2022/11/11 10:52:38;;;;;;;0.80;0.38;;;;;;;;;;4027516;29;20571;-46
2022/11/11 10:55:03;;;;;;;0.90;0.47;;;;;;;;;;4046024;29;21166;-46
2022/11/11 10:57:32;;;;;;;0.68;0.32;;;;;;;;;;4042094;29;20078;-45
2022/11/11 11:00:02;;;;;;;1.43;0.40;;;;;;;;;;4029364;29;20131;-45
2022/11/11 11:02:22;;;;;;;;;;;;;;;;;;4035864;29;20060;-44
2022/11/11 11:04:48;;;;;;;1.38;0.47;;;;;;;;;;4019983;29;20474;-39
2022/11/11 11:07:12;;;;;;;1.73;0.40;;;;;;;;;;4018307;29;20063;-36
2022/11/11 11:10:04;;;;;;;0.75;0.47;;;;;;;;;;4169945;27;20569;-36
2022/11/11 11:12:35;;;;;;;0.70;0.40;;;;;;;;;;4158431;28;20584;-37
2022/11/11 11:14:57;;;;;;;;;;;;;;;;;;4163582;28;20833;-37
2022/11/11 11:17:22;;;;;;;0.57;0.32;;;;;;;;;;4156281;28;20422;-37
2022/11/11 11:19:42;;;;;;;1.52;0.30;;;;;;;;;;4161031;28;20134;-38
2022/11/11 11:22:02;;;;;;;0.90;0.30;;;;;;;;;;4157767;28;20052;-37
2022/11/11 11:24:27;;;;;;;2.05;0.43;;;;;;;;;;4164582;28;20064;-37
2022/11/11 11:26:54;;;;;;;1.40;0.60;;;;;;;;;;4164373;28;20071;-38
2022/11/11 11:29:23;;;;;;;0.75;0.50;;;;;;;;;;4160841;28;20048;-37
2022/11/11 11:31:46;;;;;;;1.00;0.32;;;;;;;;;;4162511;28;20440;-38
2022/11/11 11:34:07;;;;;;;1.15;0.65;;;;;;;;;;4161166;28;20664;-38
2022/11/11 11:36:26;;;;;;;0.90;0.40;;;;;;;;;;4160407;28;20321;-35
2022/11/11 11:38:51;;;;;;;2.05;0.30;;;;;;;;;;4160609;28;20691;-36
2022/11/11 11:41:12;;;;;;;0.73;0.30;;;;;;;;;;4161324;28;20495;-35
2022/11/11 11:43:35;;;;;;;0.82;0.40;;;;;;;;;;4159980;28;20056;-36
2022/11/11 11:45:59;;;;;;;1.05;0.40;;;;;;;;;;4159311;28;20079;-35
2022/11/11 11:48:25;;;;;;;0.95;0.57;;;;;;;;;;4154331;28;20645;-35
2022/11/11 11:50:52;;;;;;;1.23;0.30;;;;;;;;;;4160402;28;20451;-36
2022/11/11 11:53:25;;;;;;;0.57;0.40;;;;;;;;;;4157365;28;20598;-36
2022/11/11 11:55:55;;;;;;;1.75;0.50;;;;;;;;;;4179491;28;20105;-37
2022/11/11 11:58:33;;;;;;;1.92;0.50;;;;;;;;;;4203656;28;20048;-36
2022/11/11 12:01:04;;;;;;;3.75;0.50;;;;;;;;;;4173195;28;20056;-36
2022/11/11 12:03:57;;;;;;;0.43;0.28;;;;;;;;;;4169929;28;20045;-36
2022/11/11 12:06:19;;;;;;;1.10;0.40;;;;;;;;;;4150808;28;20053;-35
2022/11/11 12:08:45;;;;;;;2.88;0.30;;;;;;;;;;4157195;28;20482;-36
2022/11/11 12:11:34;;;;;;;0.80;0.20;;;;;;;;;;4161265;28;20057;-35
2022/11/11 12:14:32;;;;;;;0.77;0.30;;;;;;;;;;4155938;28;20057;-36
2022/11/11 12:17:03;;;;;;;2.53;0.40;;;;;;;;;;4141864;28;20378;-35
2022/11/11 12:19:29;;;;;;;0.63;0.30;;;;;;;;;;4147718;28;20111;-35
2022/11/11 12:21:52;;;;;;;0.55;0.30;;;;;;;;;;4142814;28;20061;-36
2022/11/11 12:24:27;;;;;;;1.05;0.35;;;;;;;;;;4142593;28;20057;-36
2022/11/11 12:27:02;;;;;;;0.57;0.30;;;;;;;;;;4148657;28;20061;-36
2022/11/11 12:29:28;;;;;;;0.52;0.20;;;;;;;;;;4143547;28;20061;-36
2022/11/11 12:32:05;;;;;;;2.85;0.60;;;;;;;;;;4137328;28;20061;-35
2022/11/11 12:34:37;;;;;;;1.70;0.38;;;;;;;;;;4164841;28;20615;-35
2022/11/11 12:37:03;;;;;;;1.00;0.30;;;;;;;;;;4132862;28;20053;-36
2022/11/11 12:39:51;;;;;;;1.10;0.30;;;;;;;;;;4139337;28;20441;-36
2022/11/11 12:42:31;;;;;;;0.45;0.30;;;;;;;;;;4138241;28;20057;-36
2022/11/11 12:45:13;;;;;;;0.93;0.22;;;;;;;;;;4157107;28;20500;-36
2022/11/11 12:47:57;;;;;;;0.70;0.30;;;;;;;;;;4139641;28;20139;-36
2022/11/11 12:50:25;;;;;;;0.30;0.22;;;;;;;;;;4139152;28;20479;-37
2022/11/11 12:53:04;;;;;;;0.40;0.25;;;;;;;;;;4140866;28;20064;-37
2022/11/11 12:55:37;;;;;;;0.65;0.30;;;;;;;;;;4141560;28;20106;-36
2022/11/11 12:58:19;;;;;;;0.47;0.30;;;;;;;;;;4151688;28;20056;-36
2022/11/11 13:01:01;;;;;;;0.57;0.22;;;;;;;;;;4136494;28;20058;-36
2022/11/11 13:03:59;;;;;;;0.60;0.30;;;;;;;;;;4138729;28;20062;-35
2022/11/11 13:06:31;;;;;;;0.52;0.30;;;;;;;;;;4140301;28;20061;-35
2022/11/11 13:09:13;;;;;;;0.45;0.28;;;;;;;;;;4135493;28;20061;-35
2022/11/11 13:11:47;;;;;;;0.60;0.22;;;;;;;;;;4135312;28;20061;-36
2022/11/11 13:14:33;;;;;;;0.30;0.20;;;;;;;;;;4134522;28;20088;-35
2022/11/11 13:16:55;;;;;;;0.55;0.25;;;;;;;;;;4141668;28;20053;-35
2022/11/11 13:19:17;;;;;;;1.35;0.45;;;;;;;;;;4135460;28;20049;-35
2022/11/11 13:21:50;;;;;;;0.50;0.30;;;;;;;;;;4157738;28;20057;-35
2022/11/11 13:24:12;;;;;;;0.40;0.10;;;;;;;;;;4173351;28;20090;-35
2022/11/11 13:26:38;;;;;;;0.70;0.30;;;;;;;;;;4145119;28;20095;-36
2022/11/11 13:29:42;;;;;;;0.38;0.20;;;;;;;;;;4155014;28;20053;-36
2022/11/11 13:32:04;;;;;;;0.85;0.40;;;;;;;;;;4136857;28;20123;-35
2022/11/11 13:34:25;;;;;;;0.82;0.30;;;;;;;;;;4144289;28;20057;-39
2022/11/11 13:36:49;;;;;;;1.50;0.15;;;;;;;;;;4143926;28;21442;-39
2022/11/11 13:39:22;;;;;;;0.40;0.20;;;;;;;;;;4139797;28;20477;-39
2022/11/11 13:41:48;;;;;;;0.28;0.10;;;;;;;;;;4145923;28;20123;-37
2022/11/11 13:44:08;;;;;;;0.25;0.15;;;;;;;;;;4145715;28;20785;-39
2022/11/11 13:46:31;;;;;;;2.15;0.35;;;;;;;;;;4146530;28;20336;-39
2022/11/11 13:48:51;;;;;;;0.52;0.30;;;;;;;;;;4148762;28;20402;-38
2022/11/11 13:51:24;;;;;;;;;;;;;;;;;;4147172;28;20496;-39
2022/11/11 13:53:46;;;;;;;0.28;0.20;;;;;;;;;;4148595;28;19936;-39
2022/11/11 13:56:08;;;;;;;1.75;0.20;;;;;;;;;;4148172;28;20061;-40
2022/11/11 13:58:34;;;;;;;1.08;0.22;;;;;;;;;;4138443;28;20075;-39
2022/11/11 14:01:02;;;;;;;4.03;0.30;;;;;;;;;;4141585;28;20530;-40
2022/11/11 14:03:22;;;;;;;0.13;0.10;;;;;;;;;;4150232;28;20057;-40
2022/11/11 14:05:43;;;;;;;1.00;0.25;;;;;;;;;;4152606;28;20053;-39
2022/11/11 14:08:03;;;;;;;1.00;0.30;;;;;;;;;;4150382;28;20069;-40
2022/11/11 14:10:35;;;;;;;;;;;;;;;;;;4154288;28;20053;-40
2022/11/11 14:13:20;;;;;;;0.47;0.20;;;;;;;;;;4151662;28;20325;-40
2022/11/11 14:15:43;;;;;;;1.80;0.40;;;;;;;;;;4153446;28;20084;-39
2022/11/11 14:18:10;;;;;;;0.50;0.10;;;;;;;;;;4149195;28;20045;-40
2022/11/11 14:20:40;;;;;;;1.20;0.30;;;;;;;;;;4151236;28;20516;-40
2022/11/11 14:23:19;;;;;;;0.20;0.10;;;;;;;;;;4162429;28;20079;-37
2022/11/11 14:25:39;;;;;;;0.57;0.20;;;;;;;;;;4153165;28;21089;-40
2022/11/11 14:28:00;;;;;;;0.55;0.30;;;;;;;;;;4144559;28;20061;-39
2022/11/11 14:30:46;;;;;;;1.05;0.35;;;;;;;;;;4151137;28;20065;-39
2022/11/11 14:34:08;;;;;;;1.63;0.40;;;;;;;;;;4147845;28;20057;-40
2022/11/11 14:36:33;;;;;;;0.77;0.30;;;;;;;;;;4086710;28;20569;-39
2022/11/11 14:39:17;;;;;;;0.70;0.52;;;;;;;;;;4093623;28;20511;-40
2022/11/11 14:41:40;;;;;;;1.10;0.20;;;;;;;;;;4129730;28;20061;-38
2022/11/11 14:44:27;;;;;;;0.75;0.30;;;;;;;;;;4157897;28;20049;-41
2022/11/11 14:47:08;;;;;;;0.88;0.20;;;;;;;;;;4149958;28;20049;-38
2022/11/11 14:49:43;;;;;;;0.35;0.17;;;;;;;;;;4152677;28;20103;-40
2022/11/11 14:52:12;;;;;;;0.93;0.30;;;;;;;;;;4150030;28;20594;-37
2022/11/11 14:54:55;;;;;;;0.68;0.30;;;;;;;;;;4178382;28;20053;-40
2022/11/11 14:57:20;;;;;;;0.20;0.20;;;;;;;;;;4150859;28;20206;-40
2022/11/11 14:59:40;;;;;;;1.75;0.30;;;;;;;;;;4155028;28;20772;-38
2022/11/11 15:02:00;;;;;;;1.17;0.40;;;;;;;;;;4136325;28;20069;-40
2022/11/11 15:04:20;;;;;;;0.52;0.32;;;;;;;;;;4150176;28;20076;-40
2022/11/11 15:06:47;;;;;;;1.02;0.35;;;;;;;;;;4154271;28;20061;-40
2022/11/11 15:09:36;;;;;;;0.40;0.20;;;;;;;;;;4155754;28;20049;-40
2022/11/11 15:12:16;;;;;;;0.50;0.20;;;;;;;;;;4148366;28;20056;-40
2022/11/11 15:14:41;;;;;;;0.77;0.40;;;;;;;;;;4156465;28;20481;-39
2022/11/11 15:17:45;;;;;;;0.20;0.20;;;;;;;;;;4156624;28;20058;-40
2022/11/11 15:20:25;;;;;;;0.40;0.20;;;;;;;;;;4112521;28;20061;-39
2022/11/11 15:22:55;;;;;;;0.82;0.30;;;;;;;;;;4156280;28;20061;-39
2022/11/11 15:25:21;;;;;;;;;;;;;;;;;;4155268;28;20058;-39
2022/11/11 15:28:02;;;;;;;0.15;0.10;;;;;;;;;;4158170;28;19921;-39
2022/11/11 15:30:24;;;;;;;0.30;0.10;;;;;;;;;;4150753;28;20046;-39
2022/11/11 15:33:08;;;;;;;0.80;0.30;;;;;;;;;;4148716;28;20121;-37
2022/11/11 15:35:56;;;;;;;0.68;0.30;;;;;;;;;;4154881;28;20100;-40
2022/11/11 15:38:17;;;;;;;0.57;0.40;;;;;;;;;;4152445;28;20049;-40
2022/11/11 15:41:00;;;;;;;0.50;0.25;;;;;;;;;;4168372;28;20380;-39
2022/11/11 15:43:26;;;;;;;0.35;0.20;;;;;;;;;;4150050;28;20061;-40
2022/11/11 15:46:10;;;;;;;0.85;0.30;;;;;;;;;;4150341;28;20057;-37
2022/11/11 15:49:37;;;;;;;0.38;0.20;;;;;;;;;;4138494;28;20472;-40
2022/11/11 15:51:57;;;;;;;0.38;0.30;;;;;;;;;;4132082;28;20628;-39
2022/11/11 15:54:21;;;;;;;;;;;;;;;;;;4133626;28;20058;-39
2022/11/11 15:56:41;;;;;;;0.20;0.10;;;;;;;;;;4140019;28;19952;-39